sensor_id;sensor_type;location;lat;lon;timestamp;P1;durP1;ratioP1;P2;durP2;ratioP2
36215;SDS011;22257;52.232;21.084;2022-07-25T00:01:21;5.17;;;4.67;;
36215;SDS011;22257;52.232;21.084;2022-07-25T00:03:47;7.00;;;4.65;;
36215;SDS011;22257;52.232;21.084;2022-07-25T00:06:13;7.85;;;4.60;;
36215;SDS011;22257;52.232;21.084;2022-07-25T00:08:40;6.17;;;4.60;;
36215;SDS011;22257;52.232;21.084;2022-07-25T00:11:06;10.95;;;4.72;;
36215;SDS011;22257;52.232;21.084;2022-07-25T00:13:32;6.33;;;4.50;;
36215;SDS011;22257;52.232;21.084;2022-07-25T00:15:58;8.05;;;4.50;;
36215;SDS011;22257;52.232;21.084;2022-07-25T00:18:25;4.83;;;4.33;;
36215;SDS011;22257;52.232;21.084;2022-07-25T00:20:52;8.08;;;4.67;;
36215;SDS011;22257;52.232;21.084;2022-07-25T00:23:18;8.13;;;4.70;;
36215;SDS011;22257;52.232;21.084;2022-07-25T00:25:44;7.10;;;4.87;;
36215;SDS011;22257;52.232;21.084;2022-07-25T00:28:10;7.55;;;4.75;;
36215;SDS011;22257;52.232;21.084;2022-07-25T00:30:36;5.92;;;4.65;;
36215;SDS011;22257;52.232;21.084;2022-07-25T00:33:02;9.00;;;4.70;;
36215;SDS011;22257;52.232;21.084;2022-07-25T00:35:28;11.25;;;4.92;;
36215;SDS011;22257;52.232;21.084;2022-07-25T00:37:55;8.35;;;5.35;;
36215;SDS011;22257;52.232;21.084;2022-07-25T00:40:21;11.10;;;4.78;;
36215;SDS011;22257;52.232;21.084;2022-07-25T00:42:47;8.88;;;4.97;;
36215;SDS011;22257;52.232;21.084;2022-07-25T00:45:14;6.28;;;5.05;;
36215;SDS011;22257;52.232;21.084;2022-07-25T00:47:40;8.35;;;4.90;;
36215;SDS011;22257;52.232;21.084;2022-07-25T00:50:07;6.40;;;4.80;;
36215;SDS011;22257;52.232;21.084;2022-07-25T00:52:33;5.80;;;5.08;;
36215;SDS011;22257;52.232;21.084;2022-07-25T00:54:59;10.28;;;5.03;;
36215;SDS011;22257;52.232;21.084;2022-07-25T00:57:26;8.40;;;4.90;;
36215;SDS011;22257;52.232;21.084;2022-07-25T00:59:52;8.30;;;5.40;;
36215;SDS011;22257;52.232;21.084;2022-07-25T01:02:18;6.12;;;4.83;;
36215;SDS011;22257;52.232;21.084;2022-07-25T01:04:44;9.73;;;5.33;;
36215;SDS011;22257;52.232;21.084;2022-07-25T01:07:10;6.67;;;4.65;;
36215;SDS011;22257;52.232;21.084;2022-07-25T01:09:36;8.40;;;5.42;;
36215;SDS011;22257;52.232;21.084;2022-07-25T01:12:03;11.95;;;5.87;;
36215;SDS011;22257;52.232;21.084;2022-07-25T01:14:30;7.45;;;5.10;;
36215;SDS011;22257;52.232;21.084;2022-07-25T01:16:56;5.83;;;4.62;;
36215;SDS011;22257;52.232;21.084;2022-07-25T01:19:22;6.70;;;5.40;;
36215;SDS011;22257;52.232;21.084;2022-07-25T01:21:48;9.63;;;5.90;;
36215;SDS011;22257;52.232;21.084;2022-07-25T01:24:14;7.72;;;5.50;;
36215;SDS011;22257;52.232;21.084;2022-07-25T01:26:41;8.73;;;5.30;;
36215;SDS011;22257;52.232;21.084;2022-07-25T01:29:07;16.45;;;5.83;;
36215;SDS011;22257;52.232;21.084;2022-07-25T01:31:33;7.25;;;5.33;;
36215;SDS011;22257;52.232;21.084;2022-07-25T01:33:59;6.72;;;4.95;;
36215;SDS011;22257;52.232;21.084;2022-07-25T01:36:25;8.48;;;5.47;;
36215;SDS011;22257;52.232;21.084;2022-07-25T01:38:51;7.92;;;5.58;;
36215;SDS011;22257;52.232;21.084;2022-07-25T01:41:18;13.85;;;5.58;;
36215;SDS011;22257;52.232;21.084;2022-07-25T01:43:44;7.58;;;5.40;;
36215;SDS011;22257;52.232;21.084;2022-07-25T01:46:10;11.25;;;6.10;;
36215;SDS011;22257;52.232;21.084;2022-07-25T01:48:36;10.00;;;5.70;;
36215;SDS011;22257;52.232;21.084;2022-07-25T01:51:02;11.00;;;5.97;;
36215;SDS011;22257;52.232;21.084;2022-07-25T01:53:29;7.62;;;5.72;;
36215;SDS011;22257;52.232;21.084;2022-07-25T01:55:55;9.15;;;6.00;;
36215;SDS011;22257;52.232;21.084;2022-07-25T01:58:22;11.38;;;5.50;;
36215;SDS011;22257;52.232;21.084;2022-07-25T02:00:48;10.05;;;6.00;;
36215;SDS011;22257;52.232;21.084;2022-07-25T02:03:14;11.93;;;6.62;;
36215;SDS011;22257;52.232;21.084;2022-07-25T02:06:00;9.30;;;6.08;;
36215;SDS011;22257;52.232;21.084;2022-07-25T02:08:24;8.95;;;6.05;;
36215;SDS011;22257;52.232;21.084;2022-07-25T02:10:50;9.93;;;6.03;;
36215;SDS011;22257;52.232;21.084;2022-07-25T02:13:17;8.53;;;6.55;;
36215;SDS011;22257;52.232;21.084;2022-07-25T02:15:44;9.98;;;6.80;;
36215;SDS011;22257;52.232;21.084;2022-07-25T02:18:10;8.53;;;6.33;;
36215;SDS011;22257;52.232;21.084;2022-07-25T02:20:36;10.10;;;6.12;;
36215;SDS011;22257;52.232;21.084;2022-07-25T02:23:03;9.45;;;6.42;;
36215;SDS011;22257;52.232;21.084;2022-07-25T02:25:30;10.05;;;7.30;;
36215;SDS011;22257;52.232;21.084;2022-07-25T02:27:57;9.75;;;6.55;;
36215;SDS011;22257;52.232;21.084;2022-07-25T02:30:23;11.05;;;5.87;;
36215;SDS011;22257;52.232;21.084;2022-07-25T02:32:50;10.32;;;6.22;;
36215;SDS011;22257;52.232;21.084;2022-07-25T02:35:17;7.97;;;6.15;;
36215;SDS011;22257;52.232;21.084;2022-07-25T02:37:43;10.88;;;6.40;;
36215;SDS011;22257;52.232;21.084;2022-07-25T02:40:10;14.43;;;6.97;;
36215;SDS011;22257;52.232;21.084;2022-07-25T02:42:37;13.95;;;6.75;;
36215;SDS011;22257;52.232;21.084;2022-07-25T02:45:03;14.80;;;6.70;;
36215;SDS011;22257;52.232;21.084;2022-07-25T02:47:31;9.00;;;6.55;;
36215;SDS011;22257;52.232;21.084;2022-07-25T02:49:57;13.30;;;7.08;;
36215;SDS011;22257;52.232;21.084;2022-07-25T02:52:23;9.18;;;6.45;;
36215;SDS011;22257;52.232;21.084;2022-07-25T02:54:49;11.28;;;7.10;;
36215;SDS011;22257;52.232;21.084;2022-07-25T02:57:15;19.48;;;7.83;;
36215;SDS011;22257;52.232;21.084;2022-07-25T02:59:41;8.40;;;6.50;;
36215;SDS011;22257;52.232;21.084;2022-07-25T03:02:07;10.53;;;7.03;;
36215;SDS011;22257;52.232;21.084;2022-07-25T03:04:33;13.72;;;7.47;;
36215;SDS011;22257;52.232;21.084;2022-07-25T03:07:00;9.80;;;8.23;;
36215;SDS011;22257;52.232;21.084;2022-07-25T03:09:26;13.28;;;8.30;;
36215;SDS011;22257;52.232;21.084;2022-07-25T03:11:52;13.80;;;7.90;;
36215;SDS011;22257;52.232;21.084;2022-07-25T03:14:18;15.10;;;8.05;;
36215;SDS011;22257;52.232;21.084;2022-07-25T03:16:44;9.50;;;7.72;;
36215;SDS011;22257;52.232;21.084;2022-07-25T03:19:10;11.10;;;7.95;;
36215;SDS011;22257;52.232;21.084;2022-07-25T03:21:37;16.55;;;8.75;;
36215;SDS011;22257;52.232;21.084;2022-07-25T03:24:03;12.63;;;8.33;;
36215;SDS011;22257;52.232;21.084;2022-07-25T03:26:30;17.27;;;8.28;;
36215;SDS011;22257;52.232;21.084;2022-07-25T03:28:56;16.07;;;8.30;;
36215;SDS011;22257;52.232;21.084;2022-07-25T03:31:22;10.40;;;8.00;;
36215;SDS011;22257;52.232;21.084;2022-07-25T03:33:48;9.43;;;8.45;;
36215;SDS011;22257;52.232;21.084;2022-07-25T03:36:14;15.28;;;8.48;;
36215;SDS011;22257;52.232;21.084;2022-07-25T03:38:40;13.22;;;8.40;;
36215;SDS011;22257;52.232;21.084;2022-07-25T03:41:06;16.07;;;8.03;;
36215;SDS011;22257;52.232;21.084;2022-07-25T03:43:33;12.53;;;7.92;;
36215;SDS011;22257;52.232;21.084;2022-07-25T03:45:59;9.80;;;7.58;;
36215;SDS011;22257;52.232;21.084;2022-07-25T03:48:25;11.85;;;7.87;;
36215;SDS011;22257;52.232;21.084;2022-07-25T03:50:51;10.55;;;7.47;;
36215;SDS011;22257;52.232;21.084;2022-07-25T03:53:17;9.03;;;7.15;;
36215;SDS011;22257;52.232;21.084;2022-07-25T03:55:43;10.68;;;6.90;;
36215;SDS011;22257;52.232;21.084;2022-07-25T03:58:10;13.10;;;7.30;;
36215;SDS011;22257;52.232;21.084;2022-07-25T04:00:36;15.72;;;7.40;;
36215;SDS011;22257;52.232;21.084;2022-07-25T04:03:02;11.45;;;7.03;;
36215;SDS011;22257;52.232;21.084;2022-07-25T04:05:28;13.08;;;7.50;;
36215;SDS011;22257;52.232;21.084;2022-07-25T04:07:55;9.73;;;7.25;;
36215;SDS011;22257;52.232;21.084;2022-07-25T04:10:21;9.10;;;7.05;;
36215;SDS011;22257;52.232;21.084;2022-07-25T04:12:48;15.15;;;7.95;;
36215;SDS011;22257;52.232;21.084;2022-07-25T04:15:14;12.05;;;7.55;;
36215;SDS011;22257;52.232;21.084;2022-07-25T04:17:41;9.98;;;7.35;;
36215;SDS011;22257;52.232;21.084;2022-07-25T04:20:07;10.65;;;7.58;;
36215;SDS011;22257;52.232;21.084;2022-07-25T04:22:34;9.33;;;6.53;;
36215;SDS011;22257;52.232;21.084;2022-07-25T04:25:01;11.90;;;6.83;;
36215;SDS011;22257;52.232;21.084;2022-07-25T04:27:28;10.43;;;6.35;;
36215;SDS011;22257;52.232;21.084;2022-07-25T04:29:54;8.80;;;5.85;;
36215;SDS011;22257;52.232;21.084;2022-07-25T04:32:20;11.75;;;6.28;;
36215;SDS011;22257;52.232;21.084;2022-07-25T04:34:46;18.02;;;5.80;;
36215;SDS011;22257;52.232;21.084;2022-07-25T04:37:13;8.78;;;5.17;;
36215;SDS011;22257;52.232;21.084;2022-07-25T04:39:39;11.60;;;6.33;;
36215;SDS011;22257;52.232;21.084;2022-07-25T04:42:05;13.10;;;5.87;;
36215;SDS011;22257;52.232;21.084;2022-07-25T04:44:31;10.68;;;6.40;;
36215;SDS011;22257;52.232;21.084;2022-07-25T04:46:57;9.53;;;5.67;;
36215;SDS011;22257;52.232;21.084;2022-07-25T04:49:23;10.93;;;5.92;;
36215;SDS011;22257;52.232;21.084;2022-07-25T04:51:49;11.18;;;6.40;;
36215;SDS011;22257;52.232;21.084;2022-07-25T04:54:15;24.77;;;7.08;;
36215;SDS011;22257;52.232;21.084;2022-07-25T04:56:41;13.38;;;7.05;;
36215;SDS011;22257;52.232;21.084;2022-07-25T04:59:07;9.75;;;6.78;;
36215;SDS011;22257;52.232;21.084;2022-07-25T05:01:34;10.32;;;6.08;;
36215;SDS011;22257;52.232;21.084;2022-07-25T05:04:00;12.80;;;5.80;;
36215;SDS011;22257;52.232;21.084;2022-07-25T05:06:26;10.55;;;5.53;;
36215;SDS011;22257;52.232;21.084;2022-07-25T05:08:53;18.48;;;5.45;;
36215;SDS011;22257;52.232;21.084;2022-07-25T05:11:19;11.55;;;5.70;;
36215;SDS011;22257;52.232;21.084;2022-07-25T05:13:45;16.25;;;7.55;;
36215;SDS011;22257;52.232;21.084;2022-07-25T05:16:11;10.43;;;4.85;;
36215;SDS011;22257;52.232;21.084;2022-07-25T05:18:37;9.80;;;4.55;;
36215;SDS011;22257;52.232;21.084;2022-07-25T05:21:03;10.48;;;4.45;;
36215;SDS011;22257;52.232;21.084;2022-07-25T05:23:30;9.15;;;4.30;;
36215;SDS011;22257;52.232;21.084;2022-07-25T05:25:56;8.78;;;3.72;;
36215;SDS011;22257;52.232;21.084;2022-07-25T05:28:22;8.75;;;3.80;;
36215;SDS011;22257;52.232;21.084;2022-07-25T05:30:48;7.17;;;3.70;;
36215;SDS011;22257;52.232;21.084;2022-07-25T05:33:14;13.43;;;3.90;;
36215;SDS011;22257;52.232;21.084;2022-07-25T05:35:40;7.00;;;3.70;;
36215;SDS011;22257;52.232;21.084;2022-07-25T05:38:06;10.13;;;4.40;;
36215;SDS011;22257;52.232;21.084;2022-07-25T05:40:32;7.00;;;3.75;;
36215;SDS011;22257;52.232;21.084;2022-07-25T05:42:59;5.90;;;3.52;;
36215;SDS011;22257;52.232;21.084;2022-07-25T05:45:25;6.37;;;3.40;;
36215;SDS011;22257;52.232;21.084;2022-07-25T05:47:51;7.03;;;3.55;;
36215;SDS011;22257;52.232;21.084;2022-07-25T05:50:17;5.42;;;3.10;;
36215;SDS011;22257;52.232;21.084;2022-07-25T05:52:44;8.05;;;3.42;;
36215;SDS011;22257;52.232;21.084;2022-07-25T05:55:10;6.90;;;3.05;;
36215;SDS011;22257;52.232;21.084;2022-07-25T05:57:36;9.83;;;3.67;;
36215;SDS011;22257;52.232;21.084;2022-07-25T06:00:03;7.50;;;2.95;;
36215;SDS011;22257;52.232;21.084;2022-07-25T06:02:30;6.35;;;3.52;;
36215;SDS011;22257;52.232;21.084;2022-07-25T06:04:56;5.33;;;2.92;;
36215;SDS011;22257;52.232;21.084;2022-07-25T06:07:23;16.50;;;3.20;;
36215;SDS011;22257;52.232;21.084;2022-07-25T06:09:49;10.20;;;3.12;;
36215;SDS011;22257;52.232;21.084;2022-07-25T06:12:15;11.33;;;3.10;;
36215;SDS011;22257;52.232;21.084;2022-07-25T06:14:41;7.70;;;3.35;;
36215;SDS011;22257;52.232;21.084;2022-07-25T06:17:07;6.65;;;3.25;;
36215;SDS011;22257;52.232;21.084;2022-07-25T06:19:34;8.30;;;3.30;;
36215;SDS011;22257;52.232;21.084;2022-07-25T06:21:59;9.30;;;3.47;;
36215;SDS011;22257;52.232;21.084;2022-07-25T06:24:25;4.25;;;3.22;;
36215;SDS011;22257;52.232;21.084;2022-07-25T06:26:52;4.92;;;3.52;;
36215;SDS011;22257;52.232;21.084;2022-07-25T06:29:18;7.15;;;3.22;;
36215;SDS011;22257;52.232;21.084;2022-07-25T06:31:43;9.63;;;3.60;;
36215;SDS011;22257;52.232;21.084;2022-07-25T06:34:10;6.60;;;3.95;;
36215;SDS011;22257;52.232;21.084;2022-07-25T06:36:36;8.03;;;3.05;;
36215;SDS011;22257;52.232;21.084;2022-07-25T06:39:02;6.08;;;3.02;;
36215;SDS011;22257;52.232;21.084;2022-07-25T06:41:28;9.05;;;3.37;;
36215;SDS011;22257;52.232;21.084;2022-07-25T06:43:56;7.47;;;3.27;;
36215;SDS011;22257;52.232;21.084;2022-07-25T06:46:23;6.67;;;3.08;;
36215;SDS011;22257;52.232;21.084;2022-07-25T06:48:51;5.55;;;2.80;;
36215;SDS011;22257;52.232;21.084;2022-07-25T06:51:17;10.38;;;2.87;;
36215;SDS011;22257;52.232;21.084;2022-07-25T06:53:43;5.80;;;2.87;;
36215;SDS011;22257;52.232;21.084;2022-07-25T06:56:09;8.80;;;3.22;;
36215;SDS011;22257;52.232;21.084;2022-07-25T06:58:35;7.75;;;3.20;;
36215;SDS011;22257;52.232;21.084;2022-07-25T07:01:01;4.90;;;2.90;;
36215;SDS011;22257;52.232;21.084;2022-07-25T07:03:27;9.48;;;2.98;;
36215;SDS011;22257;52.232;21.084;2022-07-25T07:05:53;7.30;;;2.90;;
36215;SDS011;22257;52.232;21.084;2022-07-25T07:08:20;4.00;;;2.75;;
36215;SDS011;22257;52.232;21.084;2022-07-25T07:10:46;5.05;;;2.45;;
36215;SDS011;22257;52.232;21.084;2022-07-25T07:13:12;6.08;;;2.98;;
36215;SDS011;22257;52.232;21.084;2022-07-25T07:15:45;7.70;;;2.80;;
36215;SDS011;22257;52.232;21.084;2022-07-25T07:18:14;6.72;;;2.47;;
36215;SDS011;22257;52.232;21.084;2022-07-25T07:20:42;4.37;;;2.37;;
36215;SDS011;22257;52.232;21.084;2022-07-25T07:23:09;3.40;;;2.10;;
36215;SDS011;22257;52.232;21.084;2022-07-25T07:25:35;3.87;;;2.15;;
36215;SDS011;22257;52.232;21.084;2022-07-25T07:28:01;2.62;;;2.10;;
36215;SDS011;22257;52.232;21.084;2022-07-25T07:30:28;6.30;;;2.55;;
36215;SDS011;22257;52.232;21.084;2022-07-25T07:32:55;4.75;;;2.15;;
36215;SDS011;22257;52.232;21.084;2022-07-25T07:35:21;3.22;;;2.35;;
36215;SDS011;22257;52.232;21.084;2022-07-25T07:37:47;5.33;;;2.58;;
36215;SDS011;22257;52.232;21.084;2022-07-25T07:40:14;5.35;;;2.40;;
36215;SDS011;22257;52.232;21.084;2022-07-25T07:42:41;4.75;;;2.30;;
36215;SDS011;22257;52.232;21.084;2022-07-25T07:47:46;7.97;;;2.83;;
36215;SDS011;22257;52.232;21.084;2022-07-25T07:50:17;6.37;;;2.52;;
36215;SDS011;22257;52.232;21.084;2022-07-25T07:52:45;7.30;;;2.20;;
36215;SDS011;22257;52.232;21.084;2022-07-25T07:55:11;6.47;;;2.55;;
36215;SDS011;22257;52.232;21.084;2022-07-25T07:57:57;3.33;;;2.33;;
36215;SDS011;22257;52.232;21.084;2022-07-25T08:00:26;5.58;;;2.47;;
36215;SDS011;22257;52.232;21.084;2022-07-25T08:02:55;6.25;;;2.20;;
36215;SDS011;22257;52.232;21.084;2022-07-25T08:05:24;3.25;;;1.87;;
36215;SDS011;22257;52.232;21.084;2022-07-25T08:07:52;6.45;;;2.10;;
36215;SDS011;22257;52.232;21.084;2022-07-25T08:10:23;4.00;;;2.30;;
36215;SDS011;22257;52.232;21.084;2022-07-25T08:12:48;4.37;;;2.20;;
36215;SDS011;22257;52.232;21.084;2022-07-25T08:15:15;2.87;;;2.05;;
36215;SDS011;22257;52.232;21.084;2022-07-25T08:17:43;4.12;;;2.10;;
36215;SDS011;22257;52.232;21.084;2022-07-25T08:20:10;5.45;;;2.83;;
36215;SDS011;22257;52.232;21.084;2022-07-25T08:22:41;4.83;;;2.37;;
36215;SDS011;22257;52.232;21.084;2022-07-25T08:25:09;3.75;;;2.60;;
36215;SDS011;22257;52.232;21.084;2022-07-25T08:27:37;6.05;;;2.20;;
36215;SDS011;22257;52.232;21.084;2022-07-25T08:30:04;3.00;;;1.92;;
36215;SDS011;22257;52.232;21.084;2022-07-25T08:32:31;3.42;;;2.00;;
36215;SDS011;22257;52.232;21.084;2022-07-25T08:34:58;5.15;;;2.35;;
36215;SDS011;22257;52.232;21.084;2022-07-25T08:37:26;4.50;;;2.10;;
36215;SDS011;22257;52.232;21.084;2022-07-25T08:39:54;7.20;;;2.47;;
36215;SDS011;22257;52.232;21.084;2022-07-25T08:42:20;4.90;;;1.90;;
36215;SDS011;22257;52.232;21.084;2022-07-25T08:44:48;3.37;;;2.00;;
36215;SDS011;22257;52.232;21.084;2022-07-25T08:47:16;3.00;;;1.95;;
36215;SDS011;22257;52.232;21.084;2022-07-25T08:49:43;3.98;;;2.25;;
36215;SDS011;22257;52.232;21.084;2022-07-25T08:52:10;8.68;;;2.22;;
36215;SDS011;22257;52.232;21.084;2022-07-25T08:54:37;4.97;;;2.30;;
36215;SDS011;22257;52.232;21.084;2022-07-25T08:57:04;4.78;;;2.00;;
36215;SDS011;22257;52.232;21.084;2022-07-25T08:59:30;3.65;;;2.00;;
36215;SDS011;22257;52.232;21.084;2022-07-25T09:01:58;4.03;;;2.22;;
36215;SDS011;22257;52.232;21.084;2022-07-25T09:04:27;7.05;;;2.05;;
36215;SDS011;22257;52.232;21.084;2022-07-25T09:06:54;3.22;;;2.22;;
36215;SDS011;22257;52.232;21.084;2022-07-25T09:09:30;4.42;;;2.52;;
36215;SDS011;22257;52.232;21.084;2022-07-25T09:11:57;3.83;;;1.82;;
36215;SDS011;22257;52.232;21.084;2022-07-25T09:14:24;4.12;;;2.10;;
36215;SDS011;22257;52.232;21.084;2022-07-25T09:16:50;8.58;;;3.98;;
36215;SDS011;22257;52.232;21.084;2022-07-25T09:19:17;7.90;;;2.22;;
36215;SDS011;22257;52.232;21.084;2022-07-25T09:22:07;3.80;;;2.25;;
36215;SDS011;22257;52.232;21.084;2022-07-25T09:24:27;3.90;;;2.02;;
36215;SDS011;22257;52.232;21.084;2022-07-25T09:26:56;8.63;;;2.52;;
36215;SDS011;22257;52.232;21.084;2022-07-25T09:29:28;4.47;;;1.87;;
36215;SDS011;22257;52.232;21.084;2022-07-25T09:31:59;2.90;;;2.30;;
36215;SDS011;22257;52.232;21.084;2022-07-25T09:34:34;2.87;;;2.10;;
36215;SDS011;22257;52.232;21.084;2022-07-25T09:37:03;4.50;;;2.10;;
36215;SDS011;22257;52.232;21.084;2022-07-25T09:39:38;3.30;;;2.17;;
36215;SDS011;22257;52.232;21.084;2022-07-25T09:42:03;7.97;;;2.35;;
36215;SDS011;22257;52.232;21.084;2022-07-25T09:47:35;6.67;;;2.17;;
36215;SDS011;22257;52.232;21.084;2022-07-25T09:50:03;4.03;;;2.10;;
36215;SDS011;22257;52.232;21.084;2022-07-25T09:52:32;5.12;;;2.30;;
36215;SDS011;22257;52.232;21.084;2022-07-25T09:55:03;3.05;;;1.85;;
36215;SDS011;22257;52.232;21.084;2022-07-25T09:57:32;6.37;;;2.05;;
36215;SDS011;22257;52.232;21.084;2022-07-25T09:59:59;6.10;;;2.15;;
36215;SDS011;22257;52.232;21.084;2022-07-25T10:02:36;8.20;;;2.20;;
36215;SDS011;22257;52.232;21.084;2022-07-25T10:07:58;3.92;;;1.80;;
36215;SDS011;22257;52.232;21.084;2022-07-25T10:10:26;4.50;;;2.12;;
36215;SDS011;22257;52.232;21.084;2022-07-25T10:13:02;4.22;;;1.98;;
36215;SDS011;22257;52.232;21.084;2022-07-25T10:15:38;4.67;;;2.10;;
36215;SDS011;22257;52.232;21.084;2022-07-25T10:18:06;2.27;;;1.95;;
36215;SDS011;22257;52.232;21.084;2022-07-25T10:20:33;3.80;;;1.87;;
36215;SDS011;22257;52.232;21.084;2022-07-25T10:22:59;4.37;;;1.82;;
36215;SDS011;22257;52.232;21.084;2022-07-25T10:25:26;3.65;;;2.10;;
36215;SDS011;22257;52.232;21.084;2022-07-25T10:27:53;5.45;;;2.12;;
36215;SDS011;22257;52.232;21.084;2022-07-25T10:30:35;3.25;;;2.00;;
36215;SDS011;22257;52.232;21.084;2022-07-25T10:33:04;13.90;;;2.08;;
36215;SDS011;22257;52.232;21.084;2022-07-25T10:35:38;5.22;;;1.80;;
36215;SDS011;22257;52.232;21.084;2022-07-25T10:38:05;3.75;;;1.90;;
36215;SDS011;22257;52.232;21.084;2022-07-25T10:43:17;5.00;;;4.15;;
36215;SDS011;22257;52.232;21.084;2022-07-25T10:45:53;2.10;;;1.80;;
36215;SDS011;22257;52.232;21.084;2022-07-25T10:51:01;3.20;;;2.08;;
36215;SDS011;22257;52.232;21.084;2022-07-25T10:53:37;5.47;;;2.00;;
36215;SDS011;22257;52.232;21.084;2022-07-25T10:58:52;3.45;;;1.87;;
36215;SDS011;22257;52.232;21.084;2022-07-25T11:01:19;3.92;;;1.90;;
36215;SDS011;22257;52.232;21.084;2022-07-25T11:03:47;4.40;;;2.05;;
36215;SDS011;22257;52.232;21.084;2022-07-25T11:06:14;3.67;;;2.00;;
36215;SDS011;22257;52.232;21.084;2022-07-25T11:08:42;3.72;;;2.10;;
36215;SDS011;22257;52.232;21.084;2022-07-25T11:11:09;7.92;;;2.05;;
36215;SDS011;22257;52.232;21.084;2022-07-25T11:13:38;3.25;;;2.10;;
36215;SDS011;22257;52.232;21.084;2022-07-25T11:16:07;4.28;;;2.05;;
36215;SDS011;22257;52.232;21.084;2022-07-25T11:18:39;6.17;;;2.05;;
36215;SDS011;22257;52.232;21.084;2022-07-25T11:21:05;4.85;;;1.82;;
36215;SDS011;22257;52.232;21.084;2022-07-25T11:23:33;4.63;;;2.10;;
36215;SDS011;22257;52.232;21.084;2022-07-25T11:26:07;5.03;;;2.12;;
36215;SDS011;22257;52.232;21.084;2022-07-25T11:28:38;4.40;;;2.10;;
36215;SDS011;22257;52.232;21.084;2022-07-25T11:31:09;5.50;;;2.30;;
36215;SDS011;22257;52.232;21.084;2022-07-25T11:33:37;3.67;;;2.17;;
36215;SDS011;22257;52.232;21.084;2022-07-25T11:36:04;5.42;;;1.98;;
36215;SDS011;22257;52.232;21.084;2022-07-25T11:38:31;3.22;;;2.17;;
36215;SDS011;22257;52.232;21.084;2022-07-25T11:40:58;4.12;;;1.70;;
36215;SDS011;22257;52.232;21.084;2022-07-25T11:43:24;5.90;;;2.20;;
36215;SDS011;22257;52.232;21.084;2022-07-25T11:45:59;2.52;;;1.80;;
36215;SDS011;22257;52.232;21.084;2022-07-25T11:48:34;4.90;;;2.20;;
36215;SDS011;22257;52.232;21.084;2022-07-25T11:51:09;7.33;;;2.15;;
36215;SDS011;22257;52.232;21.084;2022-07-25T11:53:40;4.87;;;2.00;;
36215;SDS011;22257;52.232;21.084;2022-07-25T11:56:13;5.35;;;2.05;;
36215;SDS011;22257;52.232;21.084;2022-07-25T11:58:42;10.25;;;2.20;;
36215;SDS011;22257;52.232;21.084;2022-07-25T12:01:13;5.72;;;2.70;;
36215;SDS011;22257;52.232;21.084;2022-07-25T12:03:40;5.30;;;2.10;;
36215;SDS011;22257;52.232;21.084;2022-07-25T12:06:10;3.40;;;1.90;;
36215;SDS011;22257;52.232;21.084;2022-07-25T12:08:38;8.30;;;1.98;;
36215;SDS011;22257;52.232;21.084;2022-07-25T12:11:19;8.75;;;2.30;;
36215;SDS011;22257;52.232;21.084;2022-07-25T12:13:47;3.00;;;1.92;;
36215;SDS011;22257;52.232;21.084;2022-07-25T12:16:14;3.15;;;1.82;;
36215;SDS011;22257;52.232;21.084;2022-07-25T12:18:42;6.37;;;2.10;;
36215;SDS011;22257;52.232;21.084;2022-07-25T12:21:08;3.40;;;1.80;;
36215;SDS011;22257;52.232;21.084;2022-07-25T12:23:34;13.25;;;2.30;;
36215;SDS011;22257;52.232;21.084;2022-07-25T12:26:00;5.90;;;2.22;;
36215;SDS011;22257;52.232;21.084;2022-07-25T12:28:26;4.12;;;1.82;;
36215;SDS011;22257;52.232;21.084;2022-07-25T12:30:52;5.83;;;1.90;;
36215;SDS011;22257;52.232;21.084;2022-07-25T12:33:18;2.80;;;1.82;;
36215;SDS011;22257;52.232;21.084;2022-07-25T12:35:44;7.97;;;2.20;;
36215;SDS011;22257;52.232;21.084;2022-07-25T12:38:10;6.80;;;1.77;;
36215;SDS011;22257;52.232;21.084;2022-07-25T12:40:37;5.10;;;1.85;;
36215;SDS011;22257;52.232;21.084;2022-07-25T12:43:04;4.75;;;2.00;;
36215;SDS011;22257;52.232;21.084;2022-07-25T12:45:30;4.15;;;1.90;;
36215;SDS011;22257;52.232;21.084;2022-07-25T12:47:56;3.50;;;1.60;;
36215;SDS011;22257;52.232;21.084;2022-07-25T12:50:22;4.42;;;1.70;;
36215;SDS011;22257;52.232;21.084;2022-07-25T12:52:50;5.12;;;1.90;;
36215;SDS011;22257;52.232;21.084;2022-07-25T12:55:17;4.28;;;1.67;;
36215;SDS011;22257;52.232;21.084;2022-07-25T12:57:45;4.90;;;1.50;;
36215;SDS011;22257;52.232;21.084;2022-07-25T13:00:13;2.90;;;1.72;;
36215;SDS011;22257;52.232;21.084;2022-07-25T13:02:41;6.37;;;1.70;;
36215;SDS011;22257;52.232;21.084;2022-07-25T13:05:08;2.62;;;2.17;;
36215;SDS011;22257;52.232;21.084;2022-07-25T13:07:35;4.47;;;1.90;;
36215;SDS011;22257;52.232;21.084;2022-07-25T13:10:01;71.60;;;29.98;;
36215;SDS011;22257;52.232;21.084;2022-07-25T13:12:28;5.22;;;1.70;;
36215;SDS011;22257;52.232;21.084;2022-07-25T13:14:55;4.17;;;1.77;;
36215;SDS011;22257;52.232;21.084;2022-07-25T13:17:21;3.20;;;1.77;;
36215;SDS011;22257;52.232;21.084;2022-07-25T13:19:48;10.03;;;1.82;;
36215;SDS011;22257;52.232;21.084;2022-07-25T13:22:14;79.85;;;9.33;;
36215;SDS011;22257;52.232;21.084;2022-07-25T13:24:40;3.83;;;1.80;;
36215;SDS011;22257;52.232;21.084;2022-07-25T13:27:06;3.77;;;1.52;;
36215;SDS011;22257;52.232;21.084;2022-07-25T13:29:34;7.10;;;1.55;;
36215;SDS011;22257;52.232;21.084;2022-07-25T13:32:00;2.65;;;1.75;;
36215;SDS011;22257;52.232;21.084;2022-07-25T13:34:27;3.75;;;1.57;;
36215;SDS011;22257;52.232;21.084;2022-07-25T13:36:53;2.87;;;1.60;;
36215;SDS011;22257;52.232;21.084;2022-07-25T13:39:19;4.47;;;1.72;;
36215;SDS011;22257;52.232;21.084;2022-07-25T13:41:48;3.55;;;1.55;;
36215;SDS011;22257;52.232;21.084;2022-07-25T13:44:14;5.97;;;1.60;;
36215;SDS011;22257;52.232;21.084;2022-07-25T13:46:41;2.12;;;1.45;;
36215;SDS011;22257;52.232;21.084;2022-07-25T13:49:07;3.35;;;1.45;;
36215;SDS011;22257;52.232;21.084;2022-07-25T13:51:33;5.58;;;1.50;;
36215;SDS011;22257;52.232;21.084;2022-07-25T13:54:00;6.80;;;1.52;;
36215;SDS011;22257;52.232;21.084;2022-07-25T13:56:28;3.83;;;1.65;;
36215;SDS011;22257;52.232;21.084;2022-07-25T13:58:54;4.95;;;1.60;;
36215;SDS011;22257;52.232;21.084;2022-07-25T14:01:20;3.72;;;1.37;;
36215;SDS011;22257;52.232;21.084;2022-07-25T14:03:46;5.25;;;1.50;;
36215;SDS011;22257;52.232;21.084;2022-07-25T14:06:12;4.87;;;1.50;;
36215;SDS011;22257;52.232;21.084;2022-07-25T14:08:38;5.45;;;1.42;;
36215;SDS011;22257;52.232;21.084;2022-07-25T14:11:05;2.87;;;1.70;;
36215;SDS011;22257;52.232;21.084;2022-07-25T14:13:33;1.82;;;1.52;;
36215;SDS011;22257;52.232;21.084;2022-07-25T14:16:00;5.03;;;1.47;;
36215;SDS011;22257;52.232;21.084;2022-07-25T14:18:26;2.45;;;1.62;;
36215;SDS011;22257;52.232;21.084;2022-07-25T14:20:52;4.58;;;1.67;;
36215;SDS011;22257;52.232;21.084;2022-07-25T14:23:19;5.72;;;1.45;;
36215;SDS011;22257;52.232;21.084;2022-07-25T14:25:45;5.37;;;1.82;;
36215;SDS011;22257;52.232;21.084;2022-07-25T14:28:12;4.83;;;1.60;;
36215;SDS011;22257;52.232;21.084;2022-07-25T14:30:39;2.12;;;1.45;;
36215;SDS011;22257;52.232;21.084;2022-07-25T14:33:05;4.67;;;1.47;;
36215;SDS011;22257;52.232;21.084;2022-07-25T14:35:31;6.92;;;1.60;;
36215;SDS011;22257;52.232;21.084;2022-07-25T14:37:59;3.70;;;1.70;;
36215;SDS011;22257;52.232;21.084;2022-07-25T14:40:26;3.62;;;1.65;;
36215;SDS011;22257;52.232;21.084;2022-07-25T14:42:52;6.47;;;1.50;;
36215;SDS011;22257;52.232;21.084;2022-07-25T14:45:18;4.35;;;1.55;;
36215;SDS011;22257;52.232;21.084;2022-07-25T14:47:46;3.75;;;1.60;;